sensor_id;sensor_type;location;lat;lon;timestamp;temperature;humidity
66140;DHT22;52945;51.908;8.364;2023-03-12T00:02:48;3.50;66.40
66140;DHT22;52945;51.908;8.364;2023-03-12T00:05:49;3.50;66.50
66140;DHT22;52945;51.908;8.364;2023-03-12T00:08:49;3.50;66.40
66140;DHT22;52945;51.908;8.364;2023-03-12T00:11:50;3.50;66.30
66140;DHT22;52945;51.908;8.364;2023-03-12T00:14:50;3.50;66.30
66140;DHT22;52945;51.908;8.364;2023-03-12T00:17:51;3.50;66.30
66140;DHT22;52945;51.908;8.364;2023-03-12T00:20:53;3.50;66.20
66140;DHT22;52945;51.908;8.364;2023-03-12T00:23:54;3.50;66.20
66140;DHT22;52945;51.908;8.364;2023-03-12T00:26:54;3.40;66.20
66140;DHT22;52945;51.908;8.364;2023-03-12T00:29:55;3.30;65.90
66140;DHT22;52945;51.908;8.364;2023-03-12T00:32:56;3.30;65.80
66140;DHT22;52945;51.908;8.364;2023-03-12T00:35:59;3.30;65.70
66140;DHT22;52945;51.908;8.364;2023-03-12T00:39:00;3.40;65.80
66140;DHT22;52945;51.908;8.364;2023-03-12T00:42:01;3.40;66.20
66140;DHT22;52945;51.908;8.364;2023-03-12T00:45:01;3.40;66.10
66140;DHT22;52945;51.908;8.364;2023-03-12T00:48:02;3.30;65.70
66140;DHT22;52945;51.908;8.364;2023-03-12T00:51:03;3.20;65.60
66140;DHT22;52945;51.908;8.364;2023-03-12T00:54:04;3.30;65.80
66140;DHT22;52945;51.908;8.364;2023-03-12T00:57:04;3.30;65.80
66140;DHT22;52945;51.908;8.364;2023-03-12T01:00:05;3.20;65.60
66140;DHT22;52945;51.908;8.364;2023-03-12T01:03:09;3.20;65.70
66140;DHT22;52945;51.908;8.364;2023-03-12T01:06:10;3.20;65.70
66140;DHT22;52945;51.908;8.364;2023-03-12T01:09:10;3.20;65.70
66140;DHT22;52945;51.908;8.364;2023-03-12T01:12:11;3.20;65.70
66140;DHT22;52945;51.908;8.364;2023-03-12T01:15:16;3.20;65.70
66140;DHT22;52945;51.908;8.364;2023-03-12T01:18:16;3.20;65.70
66140;DHT22;52945;51.908;8.364;2023-03-12T01:21:17;3.20;65.70
66140;DHT22;52945;51.908;8.364;2023-03-12T01:24:18;3.20;65.70
66140;DHT22;52945;51.908;8.364;2023-03-12T01:27:18;3.10;65.70
66140;DHT22;52945;51.908;8.364;2023-03-12T01:30:19;3.10;65.70
66140;DHT22;52945;51.908;8.364;2023-03-12T01:33:20;3.10;65.60
66140;DHT22;52945;51.908;8.364;2023-03-12T01:36:25;3.20;65.80
66140;DHT22;52945;51.908;8.364;2023-03-12T01:39:26;3.20;66.00
66140;DHT22;52945;51.908;8.364;2023-03-12T01:42:27;3.10;65.70
66140;DHT22;52945;51.908;8.364;2023-03-12T01:49:09;3.10;66.00
66140;DHT22;52945;51.908;8.364;2023-03-12T01:52:14;3.10;66.10
66140;DHT22;52945;51.908;8.364;2023-03-12T01:55:16;3.10;66.10
66140;DHT22;52945;51.908;8.364;2023-03-12T01:58:17;3.10;66.00
66140;DHT22;52945;51.908;8.364;2023-03-12T02:01:19;3.10;65.90
66140;DHT22;52945;51.908;8.364;2023-03-12T02:04:22;3.10;66.30
66140;DHT22;52945;51.908;8.364;2023-03-12T02:07:24;3.10;66.70
66140;DHT22;52945;51.908;8.364;2023-03-12T02:10:25;3.10;67.10
66140;DHT22;52945;51.908;8.364;2023-03-12T02:13:26;3.20;67.40
66140;DHT22;52945;51.908;8.364;2023-03-12T02:16:28;3.20;67.30
66140;DHT22;52945;51.908;8.364;2023-03-12T02:19:33;3.20;67.30
66140;DHT22;52945;51.908;8.364;2023-03-12T02:22:40;3.20;67.40
66140;DHT22;52945;51.908;8.364;2023-03-12T02:25:45;3.20;66.80
66140;DHT22;52945;51.908;8.364;2023-03-12T02:28:47;3.10;66.60
66140;DHT22;52945;51.908;8.364;2023-03-12T02:31:51;3.00;66.30
66140;DHT22;52945;51.908;8.364;2023-03-12T02:34:55;2.90;66.40
66140;DHT22;52945;51.908;8.364;2023-03-12T02:37:56;3.00;66.60
66140;DHT22;52945;51.908;8.364;2023-03-12T02:40:58;3.00;66.50
66140;DHT22;52945;51.908;8.364;2023-03-12T02:47:03;2.90;66.40
66140;DHT22;52945;51.908;8.364;2023-03-12T02:50:04;2.90;66.50
66140;DHT22;52945;51.908;8.364;2023-03-12T02:53:05;2.90;66.40
66140;DHT22;52945;51.908;8.364;2023-03-12T02:56:06;2.90;66.50
66140;DHT22;52945;51.908;8.364;2023-03-12T02:59:07;2.90;66.30
66140;DHT22;52945;51.908;8.364;2023-03-12T03:02:08;2.90;66.40
66140;DHT22;52945;51.908;8.364;2023-03-12T03:05:10;2.90;66.30
66140;DHT22;52945;51.908;8.364;2023-03-12T03:08:10;2.90;66.20
66140;DHT22;52945;51.908;8.364;2023-03-12T03:11:11;2.90;66.30
66140;DHT22;52945;51.908;8.364;2023-03-12T03:14:12;2.80;66.10
66140;DHT22;52945;51.908;8.364;2023-03-12T03:17:13;2.80;66.30
66140;DHT22;52945;51.908;8.364;2023-03-12T03:20:14;2.80;66.40
66140;DHT22;52945;51.908;8.364;2023-03-12T03:23:14;2.80;66.50
66140;DHT22;52945;51.908;8.364;2023-03-12T03:26:19;2.70;66.50
66140;DHT22;52945;51.908;8.364;2023-03-12T03:29:19;2.80;66.60
66140;DHT22;52945;51.908;8.364;2023-03-12T03:32:20;2.80;66.60
66140;DHT22;52945;51.908;8.364;2023-03-12T03:35:21;2.80;66.70
66140;DHT22;52945;51.908;8.364;2023-03-12T03:38:22;2.80;66.70
66140;DHT22;52945;51.908;8.364;2023-03-12T03:41:22;2.80;66.70
66140;DHT22;52945;51.908;8.364;2023-03-12T03:44:23;2.80;67.10
66140;DHT22;52945;51.908;8.364;2023-03-12T03:47:24;2.80;67.10
66140;DHT22;52945;51.908;8.364;2023-03-12T03:50:24;2.80;67.10
66140;DHT22;52945;51.908;8.364;2023-03-12T03:53:25;2.80;67.10
66140;DHT22;52945;51.908;8.364;2023-03-12T03:56:25;2.80;66.90
66140;DHT22;52945;51.908;8.364;2023-03-12T03:59:27;2.80;67.00
66140;DHT22;52945;51.908;8.364;2023-03-12T04:02:27;2.80;67.00
66140;DHT22;52945;51.908;8.364;2023-03-12T04:05:28;2.80;66.60
66140;DHT22;52945;51.908;8.364;2023-03-12T04:08:30;2.70;66.70
66140;DHT22;52945;51.908;8.364;2023-03-12T04:11:32;2.70;66.50
66140;DHT22;52945;51.908;8.364;2023-03-12T04:14:33;2.60;66.60
66140;DHT22;52945;51.908;8.364;2023-03-12T04:17:33;2.60;66.70
66140;DHT22;52945;51.908;8.364;2023-03-12T04:20:34;2.70;66.70
66140;DHT22;52945;51.908;8.364;2023-03-12T04:23:35;2.70;67.10
66140;DHT22;52945;51.908;8.364;2023-03-12T04:26:35;2.70;67.20
66140;DHT22;52945;51.908;8.364;2023-03-12T04:29:36;2.70;67.00
66140;DHT22;52945;51.908;8.364;2023-03-12T04:32:38;2.70;66.70
66140;DHT22;52945;51.908;8.364;2023-03-12T04:35:39;2.70;66.80
66140;DHT22;52945;51.908;8.364;2023-03-12T04:38:39;2.60;66.50
66140;DHT22;52945;51.908;8.364;2023-03-12T04:41:40;2.60;66.30
66140;DHT22;52945;51.908;8.364;2023-03-12T04:44:40;2.60;66.40
66140;DHT22;52945;51.908;8.364;2023-03-12T04:47:41;2.60;66.50
66140;DHT22;52945;51.908;8.364;2023-03-12T04:50:41;2.70;66.50
66140;DHT22;52945;51.908;8.364;2023-03-12T04:53:43;2.60;66.20
66140;DHT22;52945;51.908;8.364;2023-03-12T04:56:44;2.70;66.20
66140;DHT22;52945;51.908;8.364;2023-03-12T04:59:45;2.70;66.30
66140;DHT22;52945;51.908;8.364;2023-03-12T05:02:45;2.70;66.10
66140;DHT22;52945;51.908;8.364;2023-03-12T05:05:46;2.70;66.10
66140;DHT22;52945;51.908;8.364;2023-03-12T05:08:47;2.60;65.40
66140;DHT22;52945;51.908;8.364;2023-03-12T05:11:48;2.70;65.70
66140;DHT22;52945;51.908;8.364;2023-03-12T05:14:48;2.60;65.40
66140;DHT22;52945;51.908;8.364;2023-03-12T05:17:49;2.60;65.20
66140;DHT22;52945;51.908;8.364;2023-03-12T05:21:00;2.60;65.20
66140;DHT22;52945;51.908;8.364;2023-03-12T05:24:01;2.60;65.20
66140;DHT22;52945;51.908;8.364;2023-03-12T05:27:02;2.60;65.30
66140;DHT22;52945;51.908;8.364;2023-03-12T05:30:05;2.60;65.10
66140;DHT22;52945;51.908;8.364;2023-03-12T05:33:05;2.70;65.00
66140;DHT22;52945;51.908;8.364;2023-03-12T05:36:07;2.70;65.10
66140;DHT22;52945;51.908;8.364;2023-03-12T05:39:07;2.70;65.10
66140;DHT22;52945;51.908;8.364;2023-03-12T05:42:08;2.70;65.20
66140;DHT22;52945;51.908;8.364;2023-03-12T05:45:09;2.70;65.10
66140;DHT22;52945;51.908;8.364;2023-03-12T05:48:10;2.70;65.10
66140;DHT22;52945;51.908;8.364;2023-03-12T05:51:10;2.70;65.00
66140;DHT22;52945;51.908;8.364;2023-03-12T05:54:11;2.70;64.90
66140;DHT22;52945;51.908;8.364;2023-03-12T05:57:11;2.70;64.80
66140;DHT22;52945;51.908;8.364;2023-03-12T06:00:13;2.70;64.80
66140;DHT22;52945;51.908;8.364;2023-03-12T06:03:14;2.70;64.70
66140;DHT22;52945;51.908;8.364;2023-03-12T06:06:15;2.80;64.60
66140;DHT22;52945;51.908;8.364;2023-03-12T06:09:15;2.70;64.60
66140;DHT22;52945;51.908;8.364;2023-03-12T06:12:16;2.80;64.60
66140;DHT22;52945;51.908;8.364;2023-03-12T06:15:16;2.80;64.80
66140;DHT22;52945;51.908;8.364;2023-03-12T06:18:17;2.80;64.80
66140;DHT22;52945;51.908;8.364;2023-03-12T06:21:20;2.80;64.60
66140;DHT22;52945;51.908;8.364;2023-03-12T06:24:21;2.90;64.30
66140;DHT22;52945;51.908;8.364;2023-03-12T06:27:22;2.90;64.40
66140;DHT22;52945;51.908;8.364;2023-03-12T06:30:23;2.90;64.30
66140;DHT22;52945;51.908;8.364;2023-03-12T06:33:23;2.90;64.50
66140;DHT22;52945;51.908;8.364;2023-03-12T06:36:24;3.00;64.30
66140;DHT22;52945;51.908;8.364;2023-03-12T06:39:25;3.00;64.40
66140;DHT22;52945;51.908;8.364;2023-03-12T06:42:26;3.00;63.90
66140;DHT22;52945;51.908;8.364;2023-03-12T06:45:26;3.00;63.90
66140;DHT22;52945;51.908;8.364;2023-03-12T06:48:28;3.00;63.80
66140;DHT22;52945;51.908;8.364;2023-03-12T06:51:29;3.10;63.80
66140;DHT22;52945;51.908;8.364;2023-03-12T06:54:30;3.10;63.60
66140;DHT22;52945;51.908;8.364;2023-03-12T06:57:30;3.20;63.40
66140;DHT22;52945;51.908;8.364;2023-03-12T07:00:34;3.20;63.30
66140;DHT22;52945;51.908;8.364;2023-03-12T07:03:34;3.20;63.00
66140;DHT22;52945;51.908;8.364;2023-03-12T07:06:35;3.30;62.90
66140;DHT22;52945;51.908;8.364;2023-03-12T07:09:36;3.40;62.70
66140;DHT22;52945;51.908;8.364;2023-03-12T07:12:36;3.40;62.60
66140;DHT22;52945;51.908;8.364;2023-03-12T07:15:37;3.50;62.10
66140;DHT22;52945;51.908;8.364;2023-03-12T07:18:38;3.60;62.30
66140;DHT22;52945;51.908;8.364;2023-03-12T07:21:38;3.70;62.20
66140;DHT22;52945;51.908;8.364;2023-03-12T07:24:39;3.70;61.90
66140;DHT22;52945;51.908;8.364;2023-03-12T07:27:39;3.70;61.70
66140;DHT22;52945;51.908;8.364;2023-03-12T07:30:40;3.80;61.60
66140;DHT22;52945;51.908;8.364;2023-03-12T07:33:41;3.80;61.30
66140;DHT22;52945;51.908;8.364;2023-03-12T07:36:42;3.80;61.30
66140;DHT22;52945;51.908;8.364;2023-03-12T07:39:42;3.90;61.20
66140;DHT22;52945;51.908;8.364;2023-03-12T07:42:43;4.00;61.30
66140;DHT22;52945;51.908;8.364;2023-03-12T07:45:44;4.00;61.20
66140;DHT22;52945;51.908;8.364;2023-03-12T07:48:45;4.10;60.90
66140;DHT22;52945;51.908;8.364;2023-03-12T07:51:45;4.10;60.70
66140;DHT22;52945;51.908;8.364;2023-03-12T07:54:46;4.10;60.70
66140;DHT22;52945;51.908;8.364;2023-03-12T07:57:46;4.10;60.80
66140;DHT22;52945;51.908;8.364;2023-03-12T08:00:47;4.10;60.80
66140;DHT22;52945;51.908;8.364;2023-03-12T08:03:47;4.20;60.80
66140;DHT22;52945;51.908;8.364;2023-03-12T08:06:48;4.40;60.90
66140;DHT22;52945;51.908;8.364;2023-03-12T08:09:49;4.30;60.70
66140;DHT22;52945;51.908;8.364;2023-03-12T08:12:49;4.40;60.80
66140;DHT22;52945;51.908;8.364;2023-03-12T08:15:51;4.40;60.60
66140;DHT22;52945;51.908;8.364;2023-03-12T08:18:51;4.50;60.60
66140;DHT22;52945;51.908;8.364;2023-03-12T08:21:53;4.60;60.50
66140;DHT22;52945;51.908;8.364;2023-03-12T08:24:53;4.60;60.50
66140;DHT22;52945;51.908;8.364;2023-03-12T08:27:54;4.60;60.40
66140;DHT22;52945;51.908;8.364;2023-03-12T08:30:58;4.70;60.50
66140;DHT22;52945;51.908;8.364;2023-03-12T08:33:59;4.80;60.50
66140;DHT22;52945;51.908;8.364;2023-03-12T08:37:00;4.80;60.30
66140;DHT22;52945;51.908;8.364;2023-03-12T08:40:02;4.80;60.10
66140;DHT22;52945;51.908;8.364;2023-03-12T08:43:12;5.00;60.40
66140;DHT22;52945;51.908;8.364;2023-03-12T08:46:13;5.10;60.60
66140;DHT22;52945;51.908;8.364;2023-03-12T08:49:13;5.10;60.10
66140;DHT22;52945;51.908;8.364;2023-03-12T08:52:14;5.10;60.40
66140;DHT22;52945;51.908;8.364;2023-03-12T08:55:14;5.20;60.90
66140;DHT22;52945;51.908;8.364;2023-03-12T08:58:15;5.30;61.00
66140;DHT22;52945;51.908;8.364;2023-03-12T09:01:16;5.30;61.20
66140;DHT22;52945;51.908;8.364;2023-03-12T09:04:16;5.30;60.80
66140;DHT22;52945;51.908;8.364;2023-03-12T09:07:17;5.30;61.50
66140;DHT22;52945;51.908;8.364;2023-03-12T09:10:17;5.40;61.50
66140;DHT22;52945;51.908;8.364;2023-03-12T09:13:18;5.40;61.70
66140;DHT22;52945;51.908;8.364;2023-03-12T09:16:19;5.50;62.50
66140;DHT22;52945;51.908;8.364;2023-03-12T09:19:19;5.50;63.00
66140;DHT22;52945;51.908;8.364;2023-03-12T09:22:20;5.60;63.90
66140;DHT22;52945;51.908;8.364;2023-03-12T09:25:21;5.40;64.70
66140;DHT22;52945;51.908;8.364;2023-03-12T09:28:22;5.30;65.40
66140;DHT22;52945;51.908;8.364;2023-03-12T09:31:23;5.40;66.20
66140;DHT22;52945;51.908;8.364;2023-03-12T09:34:24;5.40;66.70
66140;DHT22;52945;51.908;8.364;2023-03-12T09:37:24;5.40;67.30
66140;DHT22;52945;51.908;8.364;2023-03-12T09:40:28;5.40;68.10
66140;DHT22;52945;51.908;8.364;2023-03-12T09:43:39;5.40;68.70
66140;DHT22;52945;51.908;8.364;2023-03-12T09:47:23;5.40;69.30
66140;DHT22;52945;51.908;8.364;2023-03-12T09:53:52;5.40;70.80
66140;DHT22;52945;51.908;8.364;2023-03-12T09:56:54;5.40;71.20
66140;DHT22;52945;51.908;8.364;2023-03-12T09:59:56;5.30;71.70
66140;DHT22;52945;51.908;8.364;2023-03-12T10:06:20;5.10;72.60
66140;DHT22;52945;51.908;8.364;2023-03-12T10:19:16;5.00;74.20
66140;DHT22;52945;51.908;8.364;2023-03-12T10:22:48;4.90;75.00
66140;DHT22;52945;51.908;8.364;2023-03-12T10:26:11;4.90;75.60
66140;DHT22;52945;51.908;8.364;2023-03-12T10:29:20;5.00;75.70
66140;DHT22;52945;51.908;8.364;2023-03-12T10:32:36;5.00;76.10
66140;DHT22;52945;51.908;8.364;2023-03-12T10:35:39;4.90;76.50
66140;DHT22;52945;51.908;8.364;2023-03-12T10:38:40;5.00;76.50
66140;DHT22;52945;51.908;8.364;2023-03-12T10:41:42;4.90;76.70
66140;DHT22;52945;51.908;8.364;2023-03-12T10:44:50;5.10;76.80
66140;DHT22;52945;51.908;8.364;2023-03-12T10:48:06;5.10;76.80
66140;DHT22;52945;51.908;8.364;2023-03-12T10:51:10;5.10;77.10
66140;DHT22;52945;51.908;8.364;2023-03-12T10:54:21;5.10;77.60
66140;DHT22;52945;51.908;8.364;2023-03-12T10:57:38;5.10;77.90
66140;DHT22;52945;51.908;8.364;2023-03-12T11:00:39;5.20;77.80
66140;DHT22;52945;51.908;8.364;2023-03-12T11:03:40;5.20;78.00
66140;DHT22;52945;51.908;8.364;2023-03-12T11:06:41;5.20;78.10
66140;DHT22;52945;51.908;8.364;2023-03-12T11:09:41;5.20;78.20
66140;DHT22;52945;51.908;8.364;2023-03-12T11:13:00;5.10;78.50
66140;DHT22;52945;51.908;8.364;2023-03-12T11:19:33;5.20;78.60
66140;DHT22;52945;51.908;8.364;2023-03-12T11:22:34;5.30;78.90
66140;DHT22;52945;51.908;8.364;2023-03-12T11:25:34;5.30;79.00
66140;DHT22;52945;51.908;8.364;2023-03-12T11:28:42;5.30;79.20
66140;DHT22;52945;51.908;8.364;2023-03-12T11:35:32;5.50;79.20
66140;DHT22;52945;51.908;8.364;2023-03-12T11:51:36;5.60;79.70
66140;DHT22;52945;51.908;8.364;2023-03-12T11:54:53;5.70;79.70
66140;DHT22;52945;51.908;8.364;2023-03-12T11:58:25;5.60;79.80
66140;DHT22;52945;51.908;8.364;2023-03-12T12:25:16;6.00;80.50
66140;DHT22;52945;51.908;8.364;2023-03-12T12:40:53;6.30;80.90
66140;DHT22;52945;51.908;8.364;2023-03-12T12:44:00;6.40;81.00
66140;DHT22;52945;51.908;8.364;2023-03-12T12:47:04;6.50;81.00
66140;DHT22;52945;51.908;8.364;2023-03-12T12:50:10;6.60;81.00
66140;DHT22;52945;51.908;8.364;2023-03-12T12:53:36;6.60;81.20
66140;DHT22;52945;51.908;8.364;2023-03-12T12:56:47;6.70;81.20
66140;DHT22;52945;51.908;8.364;2023-03-12T13:03:18;6.80;81.50
66140;DHT22;52945;51.908;8.364;2023-03-12T13:06:20;6.90;81.50
66140;DHT22;52945;51.908;8.364;2023-03-12T13:09:23;7.00;81.60
66140;DHT22;52945;51.908;8.364;2023-03-12T13:12:55;7.10;81.60
66140;DHT22;52945;51.908;8.364;2023-03-12T13:16:19;7.20;81.70
66140;DHT22;52945;51.908;8.364;2023-03-12T13:19:26;7.20;81.80
66140;DHT22;52945;51.908;8.364;2023-03-12T13:23:07;7.30;82.10
66140;DHT22;52945;51.908;8.364;2023-03-12T13:26:44;7.40;82.40
66140;DHT22;52945;51.908;8.364;2023-03-12T13:29:49;7.50;82.20
66140;DHT22;52945;51.908;8.364;2023-03-12T13:39:18;7.70;82.40
66140;DHT22;52945;51.908;8.364;2023-03-12T13:42:36;7.80;82.70
66140;DHT22;52945;51.908;8.364;2023-03-12T13:45:59;8.00;82.60
66140;DHT22;52945;51.908;8.364;2023-03-12T13:49:04;8.10;82.50
66140;DHT22;52945;51.908;8.364;2023-03-12T13:55:22;8.20;82.50
66140;DHT22;52945;51.908;8.364;2023-03-12T13:58:26;8.30;82.50
66140;DHT22;52945;51.908;8.364;2023-03-12T14:01:39;8.30;82.50
66140;DHT22;52945;51.908;8.364;2023-03-12T14:04:41;8.30;82.50
66140;DHT22;52945;51.908;8.364;2023-03-12T14:17:43;8.60;82.30
66140;DHT22;52945;51.908;8.364;2023-03-12T14:20:54;8.70;82.40
66140;DHT22;52945;51.908;8.364;2023-03-12T14:23:56;8.70;82.40
66140;DHT22;52945;51.908;8.364;2023-03-12T14:26:58;8.70;82.20
66140;DHT22;52945;51.908;8.364;2023-03-12T14:30:47;8.90;82.20
66140;DHT22;52945;51.908;8.364;2023-03-12T14:33:59;8.80;82.00
66140;DHT22;52945;51.908;8.364;2023-03-12T14:37:20;8.90;82.20
66140;DHT22;52945;51.908;8.364;2023-03-12T14:43:29;9.00;82.30
66140;DHT22;52945;51.908;8.364;2023-03-12T14:46:30;9.10;82.20
66140;DHT22;52945;51.908;8.364;2023-03-12T14:49:31;9.10;82.30
66140;DHT22;52945;51.908;8.364;2023-03-12T14:52:31;9.10;82.40
66140;DHT22;52945;51.908;8.364;2023-03-12T14:55:33;9.20;82.40
66140;DHT22;52945;51.908;8.364;2023-03-12T14:58:42;9.30;82.40
66140;DHT22;52945;51.908;8.364;2023-03-12T15:01:44;9.40;82.40
66140;DHT22;52945;51.908;8.364;2023-03-12T15:04:46;9.40;82.80
66140;DHT22;52945;51.908;8.364;2023-03-12T15:07:48;9.50;82.50
66140;DHT22;52945;51.908;8.364;2023-03-12T15:10:55;9.60;82.50
66140;DHT22;52945;51.908;8.364;2023-03-12T15:14:02;9.70;82.60
66140;DHT22;52945;51.908;8.364;2023-03-12T15:17:04;9.70;82.40
66140;DHT22;52945;51.908;8.364;2023-03-12T15:20:06;9.70;82.50
66140;DHT22;52945;51.908;8.364;2023-03-12T15:23:11;9.80;82.50
66140;DHT22;52945;51.908;8.364;2023-03-12T15:26:27;9.80;82.50
66140;DHT22;52945;51.908;8.364;2023-03-12T15:29:29;10.00;82.30
66140;DHT22;52945;51.908;8.364;2023-03-12T15:32:30;10.00;82.30
66140;DHT22;52945;51.908;8.364;2023-03-12T15:35:31;10.00;82.40
66140;DHT22;52945;51.908;8.364;2023-03-12T15:38:33;10.10;82.20
66140;DHT22;52945;51.908;8.364;2023-03-12T15:41:47;10.10;82.10
66140;DHT22;52945;51.908;8.364;2023-03-12T15:44:59;10.20;82.20
66140;DHT22;52945;51.908;8.364;2023-03-12T15:48:28;10.20;82.20
66140;DHT22;52945;51.908;8.364;2023-03-12T15:51:35;10.20;82.00
66140;DHT22;52945;51.908;8.364;2023-03-12T15:54:36;10.20;82.00
66140;DHT22;52945;51.908;8.364;2023-03-12T16:00:50;10.30;81.40
66140;DHT22;52945;51.908;8.364;2023-03-12T16:03:51;10.40;81.30
66140;DHT22;52945;51.908;8.364;2023-03-12T16:06:52;10.30;81.30
66140;DHT22;52945;51.908;8.364;2023-03-12T16:09:53;10.30;81.20
66140;DHT22;52945;51.908;8.364;2023-03-12T16:13:00;10.40;81.00
66140;DHT22;52945;51.908;8.364;2023-03-12T16:16:01;10.30;80.80
66140;DHT22;52945;51.908;8.364;2023-03-12T16:19:10;10.30;80.70
66140;DHT22;52945;51.908;8.364;2023-03-12T16:22:11;10.30;80.70
66140;DHT22;52945;51.908;8.364;2023-03-12T16:25:11;10.30;80.60
66140;DHT22;52945;51.908;8.364;2023-03-12T16:28:15;10.30;80.50
66140;DHT22;52945;51.908;8.364;2023-03-12T16:31:16;10.30;81.00
66140;DHT22;52945;51.908;8.364;2023-03-12T16:34:17;10.30;80.80
66140;DHT22;52945;51.908;8.364;2023-03-12T16:37:18;10.30;81.10
66140;DHT22;52945;51.908;8.364;2023-03-12T16:40:19;10.20;81.20
66140;DHT22;52945;51.908;8.364;2023-03-12T16:43:22;10.30;81.00
66140;DHT22;52945;51.908;8.364;2023-03-12T16:46:26;10.30;80.90
66140;DHT22;52945;51.908;8.364;2023-03-12T16:49:28;10.40;80.90
66140;DHT22;52945;51.908;8.364;2023-03-12T16:52:29;10.40;80.80
66140;DHT22;52945;51.908;8.364;2023-03-12T16:55:43;10.40;80.70
66140;DHT22;52945;51.908;8.364;2023-03-12T16:58:46;10.40;80.70
66140;DHT22;52945;51.908;8.364;2023-03-12T17:01:47;10.40;80.80
66140;DHT22;52945;51.908;8.364;2023-03-12T17:04:48;10.40;80.80
66140;DHT22;52945;51.908;8.364;2023-03-12T17:07:50;10.40;80.80
66140;DHT22;52945;51.908;8.364;2023-03-12T17:10:51;10.40;80.80
66140;DHT22;52945;51.908;8.364;2023-03-12T17:14:01;10.40;80.90
66140;DHT22;52945;51.908;8.364;2023-03-12T17:17:02;10.40;80.80
66140;DHT22;52945;51.908;8.364;2023-03-12T17:20:03;10.40;80.80
66140;DHT22;52945;51.908;8.364;2023-03-12T17:23:06;10.40;80.80
66140;DHT22;52945;51.908;8.364;2023-03-12T17:26:08;10.40;80.80
66140;DHT22;52945;51.908;8.364;2023-03-12T17:29:09;10.40;80.70
66140;DHT22;52945;51.908;8.364;2023-03-12T17:32:09;10.30;80.70
66140;DHT22;52945;51.908;8.364;2023-03-12T17:35:10;10.40;80.80
66140;DHT22;52945;51.908;8.364;2023-03-12T17:38:11;10.30;80.70
66140;DHT22;52945;51.908;8.364;2023-03-12T17:41:12;10.40;80.70
66140;DHT22;52945;51.908;8.364;2023-03-12T17:44:12;10.30;80.60
66140;DHT22;52945;51.908;8.364;2023-03-12T17:47:15;10.30;80.50
66140;DHT22;52945;51.908;8.364;2023-03-12T17:50:16;10.30;80.50
66140;DHT22;52945;51.908;8.364;2023-03-12T17:53:17;10.30;80.50
66140;DHT22;52945;51.908;8.364;2023-03-12T17:56:17;10.30;80.40
66140;DHT22;52945;51.908;8.364;2023-03-12T17:59:18;10.30;80.50
66140;DHT22;52945;51.908;8.364;2023-03-12T18:02:18;10.40;80.60
66140;DHT22;52945;51.908;8.364;2023-03-12T18:05:19;10.40;80.80
66140;DHT22;52945;51.908;8.364;2023-03-12T18:08:20;10.40;80.90
66140;DHT22;52945;51.908;8.364;2023-03-12T18:11:21;10.40;81.00
66140;DHT22;52945;51.908;8.364;2023-03-12T18:14:21;10.40;81.00
66140;DHT22;52945;51.908;8.364;2023-03-12T18:17:22;10.50;80.90
66140;DHT22;52945;51.908;8.364;2023-03-12T18:20:24;10.50;81.00
66140;DHT22;52945;51.908;8.364;2023-03-12T18:23:24;10.50;81.00
66140;DHT22;52945;51.908;8.364;2023-03-12T18:26:25;10.50;81.00
66140;DHT22;52945;51.908;8.364;2023-03-12T18:29:25;10.50;81.00
66140;DHT22;52945;51.908;8.364;2023-03-12T18:32:26;10.50;81.00
66140;DHT22;52945;51.908;8.364;2023-03-12T18:35:26;10.50;81.00
66140;DHT22;52945;51.908;8.364;2023-03-12T18:38:31;10.50;81.00
66140;DHT22;52945;51.908;8.364;2023-03-12T18:41:31;10.50;80.90
66140;DHT22;52945;51.908;8.364;2023-03-12T18:44:32;10.50;80.90
66140;DHT22;52945;51.908;8.364;2023-03-12T18:47:32;10.40;80.90
66140;DHT22;52945;51.908;8.364;2023-03-12T18:50:34;10.40;80.80
66140;DHT22;52945;51.908;8.364;2023-03-12T18:53:34;10.40;80.80
66140;DHT22;52945;51.908;8.364;2023-03-12T18:56:35;10.40;80.80
66140;DHT22;52945;51.908;8.364;2023-03-12T18:59:38;10.40;80.80
66140;DHT22;52945;51.908;8.364;2023-03-12T19:02:40;10.50;80.70
66140;DHT22;52945;51.908;8.364;2023-03-12T19:05:40;10.40;80.70
66140;DHT22;52945;51.908;8.364;2023-03-12T19:08:41;10.50;80.50
66140;DHT22;52945;51.908;8.364;2023-03-12T19:11:42;10.40;80.40
66140;DHT22;52945;51.908;8.364;2023-03-12T19:14:42;10.50;80.30
66140;DHT22;52945;51.908;8.364;2023-03-12T19:17:43;10.50;80.00
66140;DHT22;52945;51.908;8.364;2023-03-12T19:20:44;10.60;79.50
66140;DHT22;52945;51.908;8.364;2023-03-12T19:23:44;10.50;79.30
66140;DHT22;52945;51.908;8.364;2023-03-12T19:26:45;10.50;79.20
66140;DHT22;52945;51.908;8.364;2023-03-12T19:29:45;10.50;78.90
66140;DHT22;52945;51.908;8.364;2023-03-12T19:32:46;10.50;78.50
66140;DHT22;52945;51.908;8.364;2023-03-12T19:35:46;10.50;77.90
66140;DHT22;52945;51.908;8.364;2023-03-12T19:38:47;10.60;77.70
66140;DHT22;52945;51.908;8.364;2023-03-12T19:41:49;10.50;77.20
66140;DHT22;52945;51.908;8.364;2023-03-12T19:44:49;10.60;76.60
66140;DHT22;52945;51.908;8.364;2023-03-12T19:47:51;10.60;76.50
66140;DHT22;52945;51.908;8.364;2023-03-12T19:50:52;10.60;76.30
66140;DHT22;52945;51.908;8.364;2023-03-12T19:53:54;10.60;76.00
66140;DHT22;52945;51.908;8.364;2023-03-12T19:56:54;10.60;76.00
66140;DHT22;52945;51.908;8.364;2023-03-12T19:59:55;10.70;75.40
66140;DHT22;52945;51.908;8.364;2023-03-12T20:02:56;10.70;75.20
66140;DHT22;52945;51.908;8.364;2023-03-12T20:05:58;10.70;74.90
66140;DHT22;52945;51.908;8.364;2023-03-12T20:08:58;10.70;74.70
66140;DHT22;52945;51.908;8.364;2023-03-12T20:12:00;10.80;74.60
66140;DHT22;52945;51.908;8.364;2023-03-12T20:15:00;10.80;74.60
66140;DHT22;52945;51.908;8.364;2023-03-12T20:18:01;10.80;74.40
66140;DHT22;52945;51.908;8.364;2023-03-12T20:21:01;10.80;74.30
66140;DHT22;52945;51.908;8.364;2023-03-12T20:24:02;10.80;74.20
66140;DHT22;52945;51.908;8.364;2023-03-12T20:27:04;10.90;74.00
66140;DHT22;52945;51.908;8.364;2023-03-12T20:30:05;10.90;74.00
66140;DHT22;52945;51.908;8.364;2023-03-12T20:33:06;10.80;73.80
66140;DHT22;52945;51.908;8.364;2023-03-12T20:36:12;10.90;73.70
66140;DHT22;52945;51.908;8.364;2023-03-12T20:39:13;10.90;73.70
66140;DHT22;52945;51.908;8.364;2023-03-12T20:42:13;10.90;73.60
66140;DHT22;52945;51.908;8.364;2023-03-12T20:45:14;10.90;73.30
66140;DHT22;52945;51.908;8.364;2023-03-12T20:48:14;10.90;73.40
66140;DHT22;52945;51.908;8.364;2023-03-12T20:51:15;11.00;73.30
66140;DHT22;52945;51.908;8.364;2023-03-12T20:54:16;11.00;73.30
66140;DHT22;52945;51.908;8.364;2023-03-12T20:57:17;11.00;73.50
66140;DHT22;52945;51.908;8.364;2023-03-12T21:00:17;11.00;73.40
66140;DHT22;52945;51.908;8.364;2023-03-12T21:03:18;11.00;73.30
66140;DHT22;52945;51.908;8.364;2023-03-12T21:06:19;10.90;73.20
66140;DHT22;52945;51.908;8.364;2023-03-12T21:09:20;10.90;73.00
66140;DHT22;52945;51.908;8.364;2023-03-12T21:12:21;11.00;72.90
66140;DHT22;52945;51.908;8.364;2023-03-12T21:15:22;11.00;73.10
66140;DHT22;52945;51.908;8.364;2023-03-12T21:18:22;11.00;72.90
66140;DHT22;52945;51.908;8.364;2023-03-12T21:21:24;11.00;72.80